Main page
METAR-TAF:

METAR-TAF

Airports :

Philip Billard Municipal Airport

Topeka, Kansas, United States

latitude: 39-04-21N, longitude: 095-37-33W, elevation: 879 ft

Current weather observation

The report was made 41 minutes ago, at 07:53 UTC
Wind 3 mph from the West/Northwest
Temperature 45°F
Humidity 57%
Pressure 30.34 in. Hg
Visibility: 10 miles
Broken clouds at a height of 11000 ft

METAR: KTOP 210753Z AUTO 30003KT 10SM BKN110 07/M01 A3034 RMK AO2 SLP276 T00671011

Time: 03:34 (08:34 UTC)

Forecast

The report was made 3 hours and 14 minutes ago, at 05:20 UTC
Forecast valid from 21 at 06 UTC to 22 at 06 UTC
Wind 8 mph from the North/Northwest
Visibility: 6 miles
Scattered clouds at a height of 10000 ft

TAF: KTOP 210520Z 2106/2206 33007KT P6SM SCT100

Weather observations and forecasts of more than 4000 airports (METAR and TAF reports).

The available stations are represented by yellow and red dots on the map.

Hover mouse over dot to see the name of the station.

Then click to see weather observations and forecasts.

To change the map : click on the green buttons with a black cross to zoom in, on the green button with a dash to zoom out, or on the green arrows for adjacent maps.


METAR-TAF: